Time;durP1;ratioP1;P1;durP2;ratioP2;P2;SDS_P1;SDS_P2;PMS_P1;PMS_P2;Temp;Humidity;BMP_temperature;BMP_pressure;BME280_temperature;BME280_humidity;BME280_pressure;Samples;Min_cycle;Max_cycle;Signal;HPM_P1;HPM_P2
2023/06/06 00:00:15;;;;;;;9.45;5.65;;;;;;;-143.48;79.59;118439.88;5032724;28;20053;-73
2023/06/06 00:02:43;;;;;;;13.85;5.78;;;;;;;-143.48;79.45;118439.88;5032680;28;20049;-73
2023/06/06 00:05:11;;;;;;;12.40;6.03;;;;;;;-143.48;79.44;118439.88;5032816;28;20017;-73
2023/06/06 00:07:37;;;;;;;13.38;6.40;;;;;;;-143.48;80.07;118439.88;5014990;28;20029;-73
2023/06/06 00:10:03;;;;;;;12.30;5.65;;;;;;;-143.48;79.46;118439.88;5032548;28;20017;-73
2023/06/06 00:12:32;;;;;;;11.70;5.93;;;;;;;-143.48;79.68;118439.88;5032754;28;20036;-73
2023/06/06 00:14:59;;;;;;;11.18;5.35;;;;;;;-143.48;80.04;118439.88;5032612;28;20033;-73
2023/06/06 00:17:25;;;;;;;13.73;6.20;;;;;;;-143.48;80.40;118439.88;5032642;28;20049;-73
2023/06/06 00:19:52;;;;;;;10.90;5.82;;;;;;;-143.48;80.16;118439.88;5032666;28;20025;-73
2023/06/06 00:22:22;;;;;;;12.90;5.80;;;;;;;-143.48;79.57;118439.88;5032488;28;20025;-72
2023/06/06 00:24:51;;;;;;;9.73;5.50;;;;;;;-143.48;79.32;118439.88;5032534;28;20028;-72
2023/06/06 00:27:17;;;;;;;10.80;5.60;;;;;;;-143.48;80.36;118439.88;5032482;28;20056;-72
2023/06/06 00:29:42;;;;;;;9.90;5.35;;;;;;;-143.48;80.56;118439.88;5014591;28;20073;-72
2023/06/06 00:32:07;;;;;;;14.02;6.00;;;;;;;-143.48;80.74;118439.88;5014379;28;20444;-73
2023/06/06 00:34:33;;;;;;;11.68;5.53;;;;;;;-143.48;80.45;118439.88;5032423;28;20029;-72
2023/06/06 00:36:58;;;;;;;11.30;5.38;;;;;;;-143.48;80.30;118439.88;5032371;28;20127;-73
2023/06/06 00:39:23;;;;;;;10.38;5.20;;;;;;;-143.48;82.11;118439.88;5032340;28;20030;-72
2023/06/06 00:41:49;;;;;;;10.05;5.80;;;;;;;-143.48;81.65;118439.88;5013609;28;20127;-72
2023/06/06 00:44:15;;;;;;;13.65;5.72;;;;;;;-143.48;82.24;118439.88;5032409;28;20469;-72
2023/06/06 00:46:41;;;;;;;11.20;5.55;;;;;;;-143.48;82.25;118439.88;5034826;28;20063;-74
2023/06/06 00:49:10;;;;;;;14.63;5.45;;;;;;;-143.48;81.83;118439.88;5035941;28;20021;-72
2023/06/06 00:51:36;;;;;;;7.90;4.93;;;;;;;-143.48;82.41;118439.88;5018101;28;20021;-72
2023/06/06 00:54:02;;;;;;;16.08;5.53;;;;;;;-143.48;82.04;118439.88;5035849;28;20423;-73
2023/06/06 00:56:29;;;;;;;10.38;5.30;;;;;;;-143.48;82.58;118439.88;5035762;28;20022;-72
2023/06/06 00:58:57;;;;;;;9.80;5.05;;;;;;;-143.48;82.71;118439.88;5035812;28;20410;-73
2023/06/06 01:01:28;;;;;;;10.75;5.50;;;;;;;-143.48;82.58;118439.88;5035605;28;20042;-73
2023/06/06 01:03:59;;;;;;;10.90;5.03;;;;;;;-143.48;83.90;118439.88;5035722;28;20487;-73
2023/06/06 01:06:25;;;;;;;10.43;5.25;;;;;;;-143.48;82.92;118439.88;5035697;28;20588;-73
2023/06/06 01:08:50;;;;;;;12.30;5.18;;;;;;;-143.48;82.58;118439.88;5035584;28;20041;-73
2023/06/06 01:11:53;;;;;;;12.02;5.10;;;;;;;-143.48;83.15;118439.88;5017720;28;20449;-73
2023/06/06 01:14:25;;;;;;;12.80;4.95;;;;;;;-143.48;83.49;118439.88;5035659;28;20029;-73
2023/06/06 01:16:52;;;;;;;11.13;5.30;;;;;;;-143.48;82.70;118439.88;5017722;28;20033;-73
2023/06/06 01:19:20;;;;;;;10.60;5.32;;;;;;;-143.48;83.32;118439.88;5035427;28;20029;-73
2023/06/06 01:21:46;;;;;;;6.57;4.50;;;;;;;-143.48;83.82;118439.88;5035390;28;20098;-73
2023/06/06 01:24:13;;;;;;;10.25;5.00;;;;;;;-143.48;84.35;118439.88;5035379;28;20032;-73
2023/06/06 01:26:38;;;;;;;12.40;5.43;;;;;;;-143.48;84.42;118439.88;5035230;28;20025;-73
2023/06/06 01:29:03;;;;;;;13.02;5.63;;;;;;;-143.48;83.43;118439.88;5035361;28;20112;-73
2023/06/06 01:31:39;;;;;;;9.18;4.78;;;;;;;-143.48;83.89;118439.88;5035142;28;20025;-73
2023/06/06 01:34:26;;;;;;;10.18;5.03;;;;;;;-143.48;83.47;118439.88;5017371;28;20037;-73
2023/06/06 01:37:00;;;;;;;12.18;5.60;;;;;;;-143.48;84.20;118439.88;5017281;28;20548;-72
2023/06/06 01:39:26;;;;;;;9.23;4.85;;;;;;;-143.48;83.76;118439.88;5035039;28;20022;-73
2023/06/06 01:41:55;;;;;;;10.75;5.03;;;;;;;-143.48;84.18;118439.88;5034953;28;20091;-73
2023/06/06 01:44:22;;;;;;;11.55;4.70;;;;;;;-143.48;84.21;118439.88;5017121;28;20029;-73
2023/06/06 01:46:47;;;;;;;8.75;4.30;;;;;;;-143.48;84.37;118439.88;5034907;28;20172;-73
2023/06/06 01:49:13;;;;;;;12.23;4.82;;;;;;;-143.48;84.09;118439.88;5034843;28;20049;-73
2023/06/06 01:51:38;;;;;;;12.40;4.68;;;;;;;-143.48;85.01;118439.88;5017137;28;20029;-73
2023/06/06 01:54:05;;;;;;;11.52;4.70;;;;;;;-143.48;84.71;118439.88;5017284;28;20025;-73
2023/06/06 01:56:33;;;;;;;9.07;4.57;;;;;;;-143.48;84.83;118439.88;5016350;28;20025;-73
2023/06/06 01:58:58;;;;;;;9.48;4.50;;;;;;;-143.48;84.40;118439.88;5034010;28;20084;-73
2023/06/06 02:01:24;;;;;;;14.02;5.30;;;;;;;-143.48;84.20;118439.88;5016757;28;20045;-73
2023/06/06 02:03:49;;;;;;;10.95;4.65;;;;;;;-143.48;85.09;118439.88;5016852;28;20388;-72
2023/06/06 02:06:14;;;;;;;8.23;4.43;;;;;;;-143.48;85.93;118439.88;5034724;28;20039;-73
2023/06/06 02:08:40;;;;;;;9.80;4.70;;;;;;;-143.48;84.90;118439.88;5016714;28;20051;-73
2023/06/06 02:11:05;;;;;;;7.78;4.30;;;;;;;-143.48;86.43;118439.88;5034399;28;20025;-73
2023/06/06 02:13:30;;;;;;;7.30;4.40;;;;;;;-143.48;85.63;118439.88;5034561;28;20029;-73
2023/06/06 02:15:56;;;;;;;9.05;4.53;;;;;;;-143.48;85.97;118439.88;5016639;28;20029;-72
2023/06/06 02:18:21;;;;;;;9.23;4.57;;;;;;;-143.48;85.50;118439.88;5034404;28;20029;-73
2023/06/06 02:20:46;;;;;;;7.75;4.65;;;;;;;-143.48;86.54;118439.88;5034226;28;20021;-73
2023/06/06 02:23:12;;;;;;;9.25;4.20;;;;;;;-143.48;86.30;118439.88;5016487;28;20546;-73
2023/06/06 02:25:37;;;;;;;8.48;4.55;;;;;;;-143.48;86.38;118439.88;5034236;28;20151;-73
2023/06/06 02:28:04;;;;;;;13.77;4.78;;;;;;;-143.48;85.99;118439.88;5034218;28;20052;-73
2023/06/06 02:30:29;;;;;;;8.13;4.28;;;;;;;-143.48;86.31;118439.88;5016150;28;20037;-73
2023/06/06 02:32:56;;;;;;;9.73;4.30;;;;;;;-143.48;86.73;118439.88;5016272;28;20028;-73
2023/06/06 02:35:21;;;;;;;10.02;4.82;;;;;;;-143.48;86.02;118439.88;5034021;28;20032;-73
2023/06/06 02:37:47;;;;;;;8.25;4.45;;;;;;;-143.48;85.68;118439.88;5034174;28;20481;-73
2023/06/06 02:40:13;;;;;;;8.38;4.40;;;;;;;-143.48;86.10;118439.88;5033874;28;20112;-73
2023/06/06 02:42:38;;;;;;;9.13;4.80;;;;;;;-143.48;86.29;118439.88;5033874;28;20092;-73
2023/06/06 02:45:08;;;;;;;8.95;4.45;;;;;;;-143.48;85.93;118439.88;5033804;28;20021;-73
2023/06/06 02:47:33;;;;;;;15.10;4.85;;;;;;;-143.48;87.56;118439.88;5015996;28;20224;-73
2023/06/06 02:49:59;;;;;;;9.23;4.85;;;;;;;-143.48;88.64;118439.88;5033782;28;20045;-73
2023/06/06 02:52:25;;;;;;;10.13;4.55;;;;;;;-143.48;87.75;118439.88;5015953;28;20052;-73
2023/06/06 02:54:50;;;;;;;10.90;4.97;;;;;;;-143.48;87.72;118439.88;5015879;28;20071;-73
2023/06/06 02:57:16;;;;;;;14.05;5.22;;;;;;;-143.48;88.10;118439.88;5033572;28;20436;-73
2023/06/06 02:59:41;;;;;;;10.23;4.57;;;;;;;-143.48;88.17;118439.88;5015703;28;20018;-73
2023/06/06 03:02:07;;;;;;;13.02;4.45;;;;;;;-143.48;88.21;118439.88;5033379;28;20045;-73
2023/06/06 03:04:33;;;;;;;12.60;4.55;;;;;;;-143.48;88.96;118439.88;5015690;28;20385;-73
2023/06/06 03:06:58;;;;;;;8.75;4.60;;;;;;;-143.48;88.12;118439.88;5033603;28;20448;-73
2023/06/06 03:09:24;;;;;;;11.27;4.30;;;;;;;-143.48;88.58;118439.88;5033014;28;20033;-73
2023/06/06 03:11:50;;;;;;;11.25;4.40;;;;;;;-143.48;88.74;118439.88;5016285;28;20025;-73
2023/06/06 03:14:16;;;;;;;8.70;4.68;;;;;;;-143.48;88.92;118439.88;5033745;28;20151;-73
2023/06/06 03:16:41;;;;;;;10.88;4.45;;;;;;;-143.48;88.74;118439.88;5015767;28;20342;-73
2023/06/06 03:19:07;;;;;;;10.30;4.50;;;;;;;-143.48;88.20;118439.88;5033639;28;20113;-73
2023/06/06 03:21:33;;;;;;;10.88;4.50;;;;;;;-143.48;88.71;118439.88;5033344;28;20035;-72
2023/06/06 03:23:59;;;;;;;9.90;4.60;;;;;;;-143.48;87.84;118439.88;5015863;28;20036;-73
2023/06/06 03:26:26;;;;;;;10.65;4.60;;;;;;;-143.48;88.74;118439.88;5033412;28;20022;-72
2023/06/06 03:28:52;;;;;;;12.25;4.65;;;;;;;-143.48;89.75;118439.88;5033814;28;20026;-73
2023/06/06 03:31:23;;;;;;;8.07;4.82;;;;;;;-143.48;89.78;118439.88;5033525;28;20025;-73
2023/06/06 03:33:52;;;;;;;11.13;4.57;;;;;;;-143.48;88.64;118439.88;5015868;28;20052;-73
2023/06/06 03:36:17;;;;;;;12.48;5.00;;;;;;;-143.48;88.20;118439.88;5035775;28;20025;-73
2023/06/06 03:38:43;;;;;;;9.82;5.10;;;;;;;-143.48;88.97;118439.88;5017781;28;20032;-73
2023/06/06 03:41:08;;;;;;;11.90;4.95;;;;;;;-143.48;88.97;118439.88;5015834;28;20025;-73
2023/06/06 03:43:34;;;;;;;10.32;5.10;;;;;;;-143.48;89.26;118439.88;5033003;28;20144;-73
2023/06/06 03:46:00;;;;;;;8.07;4.95;;;;;;;-143.48;89.10;118439.88;5032888;28;20104;-73
2023/06/06 03:48:25;;;;;;;10.15;4.70;;;;;;;-143.48;88.69;118439.88;5033039;28;20029;-73
2023/06/06 03:50:50;;;;;;;11.65;4.65;;;;;;;-143.48;88.28;118439.88;5032617;28;20432;-73
2023/06/06 03:53:16;;;;;;;13.50;5.07;;;;;;;-143.48;88.67;118439.88;5014971;28;20120;-73
2023/06/06 03:55:44;;;;;;;12.85;4.53;;;;;;;-143.48;87.94;118439.88;5014781;28;20108;-73
2023/06/06 03:58:10;;;;;;;11.52;4.55;;;;;;;-143.48;89.03;118439.88;5032799;28;20026;-73
2023/06/06 04:00:37;;;;;;;10.27;5.28;;;;;;;-143.48;89.18;118439.88;5032528;28;20025;-73
2023/06/06 04:03:03;;;;;;;9.52;4.80;;;;;;;-143.48;88.61;118439.88;5015214;28;20477;-73
2023/06/06 04:05:30;;;;;;;14.75;4.93;;;;;;;-143.48;87.88;118439.88;5032601;28;20500;-73
2023/06/06 04:07:56;;;;;;;11.90;5.05;;;;;;;-143.48;88.66;118439.88;5032669;28;20021;-73
2023/06/06 04:10:21;;;;;;;10.38;4.65;;;;;;;-143.48;89.08;118439.88;5032389;28;20436;-74
2023/06/06 04:12:47;;;;;;;12.98;4.93;;;;;;;-143.48;87.70;118439.88;5032453;28;20025;-74
2023/06/06 04:15:12;;;;;;;14.13;4.70;;;;;;;-143.48;88.44;118439.88;5032575;28;20041;-74
2023/06/06 04:17:37;;;;;;;10.70;5.20;;;;;;;-143.48;87.88;118439.88;5014900;28;20386;-73
2023/06/06 04:20:04;;;;;;;11.15;4.70;;;;;;;-143.48;88.09;118439.88;5032494;28;20062;-74
2023/06/06 04:22:30;;;;;;;10.13;4.85;;;;;;;-143.48;87.91;118439.88;5018363;28;20029;-74
2023/06/06 04:24:55;;;;;;;9.68;5.22;;;;;;;-143.48;88.53;118439.88;5036384;28;20031;-74
2023/06/06 04:27:23;;;;;;;9.52;4.75;;;;;;;-143.48;87.91;118439.88;5036295;28;20025;-73
2023/06/06 04:29:50;;;;;;;10.88;4.75;;;;;;;-143.48;87.65;118439.88;5036200;28;20044;-73
2023/06/06 04:32:18;;;;;;;10.30;4.53;;;;;;;-143.48;86.86;118439.88;5036248;28;20028;-74
2023/06/06 04:34:51;;;;;;;13.95;4.63;;;;;;;-143.48;87.08;118439.88;5020476;28;20108;-74
2023/06/06 04:37:20;;;;;;;11.75;4.72;;;;;;;-143.48;86.86;118439.88;5020564;28;20030;-74
2023/06/06 04:39:52;;;;;;;9.63;4.50;;;;;;;-143.48;87.19;118439.88;5036202;28;20104;-74
2023/06/06 04:42:19;;;;;;;11.40;4.82;;;;;;;-143.48;86.84;118439.88;5018388;28;20428;-73
2023/06/06 04:44:46;;;;;;;9.98;4.60;;;;;;;-143.48;86.21;118439.88;5036021;28;20392;-73
2023/06/06 04:47:12;;;;;;;9.63;4.63;;;;;;;-143.48;87.16;118439.88;5036722;28;20022;-73
2023/06/06 04:49:39;;;;;;;12.13;4.95;;;;;;;-143.48;86.30;118439.88;5018282;28;20026;-73
2023/06/06 04:52:10;;;;;;;10.02;4.32;;;;;;;-143.48;86.14;118439.88;5036081;28;20025;-73
2023/06/06 04:54:39;;;;;;;12.25;5.05;;;;;;;-143.48;85.91;118439.88;5035960;28;20029;-74
2023/06/06 04:57:07;;;;;;;9.77;4.47;;;;;;;-143.48;85.67;118439.88;5017953;28;20396;-74
2023/06/06 04:59:33;;;;;;;14.35;5.20;;;;;;;-143.48;84.64;118439.88;5018150;28;20060;-73
2023/06/06 05:02:01;;;;;;;11.93;4.70;;;;;;;-143.48;84.00;118439.88;5035675;28;20052;-74
2023/06/06 05:04:29;;;;;;;14.27;4.68;;;;;;;-143.48;86.01;118439.88;5035776;28;20025;-73
2023/06/06 05:06:55;;;;;;;10.93;4.32;;;;;;;-143.48;85.33;118439.88;5017894;28;20021;-74
2023/06/06 05:09:20;;;;;;;14.02;5.30;;;;;;;-143.48;86.01;118439.88;5017833;28;20109;-74
2023/06/06 05:11:48;;;;;;;10.73;4.80;;;;;;;-143.48;84.45;118439.88;5035683;28;20498;-73
2023/06/06 05:14:13;;;;;;;14.65;5.05;;;;;;;-143.48;84.50;118439.88;5017842;28;20022;-74
2023/06/06 05:16:38;;;;;;;11.90;5.18;;;;;;;-143.48;83.40;118439.88;5035455;28;20033;-74
2023/06/06 05:19:03;;;;;;;9.55;5.70;;;;;;;-143.48;84.84;118439.88;5035574;28;20029;-74
2023/06/06 05:21:30;;;;;;;13.05;5.28;;;;;;;-143.48;83.14;118439.88;5035530;28;20029;-74
2023/06/06 05:23:58;;;;;;;10.57;4.93;;;;;;;-143.48;82.10;118439.88;5017637;28;20025;-74
2023/06/06 05:26:23;;;;;;;12.70;4.93;;;;;;;-143.48;82.44;118439.88;5035334;28;20030;-74
2023/06/06 05:28:49;;;;;;;11.40;4.68;;;;;;;-143.48;82.89;118439.88;5035485;28;20512;-73
2023/06/06 05:31:17;;;;;;;13.48;4.70;;;;;;;-143.48;82.91;118439.88;5035218;28;20159;-73
2023/06/06 05:33:43;;;;;;;11.55;4.63;;;;;;;-143.48;82.54;118439.88;5035267;28;20366;-74
2023/06/06 05:36:08;;;;;;;11.27;4.40;;;;;;;-143.48;81.32;118439.88;5035277;28;20033;-74
2023/06/06 05:38:33;;;;;;;8.65;4.38;;;;;;;-143.48;79.67;118439.88;5035095;28;20026;-73
2023/06/06 05:40:59;;;;;;;10.90;4.40;;;;;;;-143.48;74.61;118439.88;5017364;28;20057;-73
2023/06/06 05:43:25;;;;;;;10.48;4.20;;;;;;;-143.48;65.51;118439.88;5017237;28;20025;-74
2023/06/06 05:45:51;;;;;;;9.73;3.83;;;;;;;-143.48;59.34;118439.88;5017182;28;20401;-74
2023/06/06 05:48:16;;;;;;;10.15;4.20;;;;;;;-143.48;57.78;118439.88;5034877;28;20036;-74
2023/06/06 05:50:43;;;;;;;12.27;4.10;;;;;;;-143.48;54.33;118439.88;5017226;28;20029;-74
2023/06/06 05:53:08;;;;;;;9.90;3.70;;;;;;;-143.48;52.66;118439.88;5035295;28;20059;-74
2023/06/06 05:55:34;;;;;;;11.52;3.90;;;;;;;-143.48;53.97;118439.88;5035148;28;20045;-74
2023/06/06 05:58:01;;;;;;;10.98;3.85;;;;;;;-143.48;52.63;118439.88;5017237;28;20104;-74
2023/06/06 06:00:28;;;;;;;8.88;3.30;;;;;;;-143.48;54.24;118439.88;5017477;28;20396;-74
2023/06/06 06:02:56;;;;;;;15.30;3.90;;;;;;;-143.48;52.09;118439.88;5017294;28;20029;-74
2023/06/06 06:05:28;;;;;;;7.97;3.65;;;;;;;-143.48;52.20;118439.88;5035119;28;20115;-74
2023/06/06 06:08:00;;;;;;;;;;;;;;;-143.48;52.33;118439.88;5035495;28;20461;-74
2023/06/06 06:10:27;;;;;;;10.63;3.78;;;;;;;-143.48;51.10;118439.88;5017208;28;19983;-74
2023/06/06 06:12:52;;;;;;;9.40;3.72;;;;;;;-143.48;50.80;118439.88;5017070;28;20022;-74
2023/06/06 06:15:18;;;;;;;11.00;3.50;;;;;;;-143.48;51.55;118439.88;5017170;28;20487;-74
2023/06/06 06:17:43;;;;;;;8.65;3.33;;;;;;;-143.48;54.33;118439.88;5034753;28;20029;-74
2023/06/06 06:20:10;;;;;;;9.65;3.88;;;;;;;-143.48;52.62;118439.88;5016549;28;20018;-74
2023/06/06 06:22:36;;;;;;;7.03;3.33;;;;;;;-143.48;52.36;118439.88;5033363;28;20101;-74
2023/06/06 06:25:03;;;;;;;11.05;4.00;;;;;;;-143.48;52.62;118439.88;5033198;28;20022;-74
2023/06/06 06:27:32;;;;;;;10.88;3.60;;;;;;;-143.48;50.48;118439.88;5033556;28;20104;-74
2023/06/06 06:29:59;;;;;;;8.30;3.30;;;;;;;-143.48;54.59;118439.88;5015935;28;20448;-74
2023/06/06 06:32:25;;;;;;;8.75;3.60;;;;;;;-143.48;52.59;118439.88;5033753;28;20021;-74
2023/06/06 06:34:51;;;;;;;7.57;3.58;;;;;;;-143.48;50.33;118439.88;5033868;28;20025;-74
2023/06/06 06:37:16;;;;;;;8.80;3.42;;;;;;;-143.48;52.15;118439.88;5016269;28;20031;-74
2023/06/06 06:39:42;;;;;;;12.70;3.85;;;;;;;-143.48;54.44;118439.88;5034033;28;20017;-74
2023/06/06 06:42:08;;;;;;;8.55;3.67;;;;;;;-143.48;54.08;118439.88;5033749;28;20029;-74
2023/06/06 06:44:33;;;;;;;10.43;3.65;;;;;;;-143.48;54.41;118439.88;5033079;28;20507;-74
2023/06/06 06:46:58;;;;;;;11.75;3.85;;;;;;;-143.48;53.53;118439.88;5015862;28;20094;-74
2023/06/06 06:49:23;;;;;;;10.05;3.65;;;;;;;-143.48;55.90;118439.88;5015763;28;20116;-74
2023/06/06 06:51:51;;;;;;;12.43;3.70;;;;;;;-143.48;54.39;118439.88;5015878;28;20116;-74
2023/06/06 06:54:21;;;;;;;12.20;3.53;;;;;;;-143.48;56.08;118439.88;5016112;28;20025;-75
2023/06/06 06:56:48;;;;;;;9.30;3.70;;;;;;;-143.48;55.87;118439.88;5015780;28;20451;-74
2023/06/06 06:59:14;;;;;;;9.82;3.55;;;;;;;-143.48;55.89;118439.88;5033559;28;20021;-74
2023/06/06 07:01:40;;;;;;;8.80;3.53;;;;;;;-143.48;55.41;118439.88;5033317;28;20057;-74
2023/06/06 07:04:07;;;;;;;12.88;3.67;;;;;;;-143.48;54.63;118439.88;5015736;28;20032;-74
2023/06/06 07:06:33;;;;;;;11.27;3.80;;;;;;;-143.48;54.93;118439.88;5033313;28;20459;-74
2023/06/06 07:09:00;;;;;;;10.50;3.42;;;;;;;-143.48;53.53;118439.88;5014314;28;20106;-74
2023/06/06 07:11:26;;;;;;;7.22;3.30;;;;;;;-143.48;54.16;118439.88;5029590;28;20022;-74
2023/06/06 07:13:51;;;;;;;11.35;3.30;;;;;;;-143.48;53.14;118439.88;5030952;28;20753;-74
2023/06/06 07:16:17;;;;;;;8.68;3.42;;;;;;;-143.48;52.39;118439.88;5012506;28;20120;-74
2023/06/06 07:18:42;;;;;;;10.00;3.63;;;;;;;-143.48;52.43;118439.88;5030021;28;20109;-74
2023/06/06 07:21:07;;;;;;;7.97;3.38;;;;;;;-143.48;51.49;118439.88;5031761;28;20022;-74
2023/06/06 07:23:33;;;;;;;8.02;3.75;;;;;;;-143.48;51.74;118439.88;5014135;28;20083;-74
2023/06/06 07:25:58;;;;;;;8.98;3.50;;;;;;;-143.48;51.83;118439.88;5013419;28;20449;-74
2023/06/06 07:28:25;;;;;;;8.90;3.75;;;;;;;-143.48;53.48;118439.88;5031590;28;20021;-74
2023/06/06 07:30:51;;;;;;;9.90;3.50;;;;;;;-143.48;52.23;118439.88;5030808;28;20075;-74
2023/06/06 07:33:16;;;;;;;10.20;3.50;;;;;;;-143.48;52.72;118439.88;5012496;28;20473;-74
2023/06/06 07:35:42;;;;;;;8.82;3.45;;;;;;;-143.48;52.06;118439.88;5013274;28;20037;-74
2023/06/06 07:38:08;;;;;;;11.80;3.63;;;;;;;-143.48;50.53;118439.88;5031121;28;20032;-74
2023/06/06 07:40:33;;;;;;;8.63;3.47;;;;;;;-143.48;52.05;118439.88;5031029;28;20024;-74
2023/06/06 07:42:59;;;;;;;9.05;3.28;;;;;;;-143.48;49.42;118439.88;5031005;28;20029;-74
2023/06/06 07:45:25;;;;;;;8.63;3.10;;;;;;;-143.48;49.17;118439.88;5031234;28;20029;-74
2023/06/06 07:47:50;;;;;;;9.98;3.33;;;;;;;-143.48;49.43;118439.88;5015227;28;20025;-74
2023/06/06 07:50:17;;;;;;;10.77;3.35;;;;;;;-143.48;48.12;118439.88;5032862;28;20032;-74
2023/06/06 07:52:46;;;;;;;7.90;3.38;;;;;;;-143.48;49.18;118439.88;5015321;28;20041;-75
2023/06/06 07:55:12;;;;;;;7.82;3.20;;;;;;;-143.48;48.68;118439.88;5016986;28;20031;-74
2023/06/06 07:57:39;;;;;;;8.48;3.22;;;;;;;-143.48;48.33;118439.88;5019223;28;20029;-74
2023/06/06 08:00:10;;;;;;;7.43;3.25;;;;;;;-143.48;49.36;118439.88;5036927;28;20037;-74
2023/06/06 08:02:36;;;;;;;6.70;3.17;;;;;;;-143.48;49.59;118439.88;5019076;28;20076;-74
2023/06/06 08:05:02;;;;;;;12.05;3.80;;;;;;;-143.48;50.26;118439.88;5036876;28;20030;-74
2023/06/06 08:07:28;;;;;;;10.98;3.47;;;;;;;-143.48;49.16;118439.88;5036877;28;20477;-74
2023/06/06 08:09:53;;;;;;;8.30;3.25;;;;;;;-143.48;48.90;118439.88;5018936;28;20098;-74
2023/06/06 08:12:18;;;;;;;8.35;3.53;;;;;;;-143.48;48.90;118439.88;5018896;28;20075;-74
2023/06/06 08:14:44;;;;;;;16.88;3.72;;;;;;;-143.48;49.88;118439.88;5036731;28;20398;-74
2023/06/06 08:17:10;;;;;;;13.45;4.80;;;;;;;-143.48;49.79;118439.88;5036615;28;20079;-74
2023/06/06 08:19:35;;;;;;;10.13;3.58;;;;;;;-143.48;50.48;118439.88;5036545;28;20025;-75
2023/06/06 08:22:02;;;;;;;8.93;3.55;;;;;;;-143.48;49.50;118439.88;5036551;28;20024;-75
2023/06/06 08:24:28;;;;;;;8.30;3.63;;;;;;;-143.48;50.96;118439.88;5019015;28;20048;-75
2023/06/06 08:26:53;;;;;;;9.00;3.45;;;;;;;-143.48;52.61;118439.88;5018653;28;20473;-74
2023/06/06 08:29:19;;;;;;;13.52;3.60;;;;;;;-143.48;48.96;118439.88;5018675;28;20130;-75
2023/06/06 08:31:45;;;;;;;11.52;3.50;;;;;;;-143.48;50.08;118439.88;5036327;28;20492;-75
2023/06/06 08:34:11;;;;;;;9.05;3.33;;;;;;;-143.48;49.18;118439.88;5036340;28;20025;-75
2023/06/06 08:36:37;;;;;;;8.07;3.33;;;;;;;-143.48;49.17;118439.88;5036598;28;20452;-78
2023/06/06 08:39:06;;;;;;;9.52;3.40;;;;;;;-143.48;49.25;118439.88;5018882;28;20051;-77
2023/06/06 08:41:32;;;;;;;12.95;4.43;;;;;;;-143.48;48.71;118439.88;5036407;28;20024;-76
2023/06/06 08:44:05;;;;;;;13.07;3.50;;;;;;;-143.48;47.35;118439.88;5018694;28;20044;-75
2023/06/06 08:46:33;;;;;;;8.25;3.35;;;;;;;-143.48;47.90;118439.88;5018423;28;20055;-75
2023/06/06 08:49:01;;;;;;;11.20;3.88;;;;;;;-143.48;46.02;118439.88;5036206;28;20033;-75
2023/06/06 08:51:27;;;;;;;12.60;4.10;;;;;;;-143.48;49.99;118439.88;5036073;28;20043;-75
2023/06/06 08:53:55;;;;;;;9.63;4.05;;;;;;;-143.48;48.73;118439.88;5036070;28;20104;-76
2023/06/06 08:56:22;;;;;;;10.18;4.15;;;;;;;-143.48;47.82;118439.88;5018231;28;20033;-75
2023/06/06 08:58:50;;;;;;;10.50;3.70;;;;;;;-143.48;47.52;118439.88;5018833;28;20052;-76
2023/06/06 09:01:18;;;;;;;10.05;3.70;;;;;;;-143.48;46.57;118439.88;5035735;28;20047;-75
2023/06/06 09:03:44;;;;;;;9.95;3.97;;;;;;;-143.48;47.66;118439.88;5018231;28;20040;-75
2023/06/06 09:06:12;;;;;;;13.80;4.00;;;;;;;-143.48;46.26;118439.88;5017543;28;20139;-75
2023/06/06 09:08:38;;;;;;;13.32;4.15;;;;;;;-143.48;49.76;118439.88;5018059;28;20037;-76
2023/06/06 09:11:04;;;;;;;8.77;3.70;;;;;;;-143.48;46.74;118439.88;5035865;28;20469;-76
2023/06/06 09:13:29;;;;;;;12.13;3.85;;;;;;;-143.48;46.45;118439.88;5035677;28;20083;-75
2023/06/06 09:15:55;;;;;;;9.43;4.05;;;;;;;-143.48;47.75;118439.88;5017764;28;20083;-76
2023/06/06 09:18:25;;;;;;;9.93;4.10;;;;;;;-143.48;45.22;118439.88;5035856;28;20025;-76
2023/06/06 09:20:54;;;;;;;13.00;4.20;;;;;;;-143.48;44.66;118439.88;5017889;28;20431;-76
2023/06/06 09:23:19;;;;;;;11.45;3.95;;;;;;;-143.48;44.20;118439.88;5035632;28;20048;-76
2023/06/06 09:25:45;;;;;;;12.57;4.13;;;;;;;-143.48;44.89;118439.88;5035465;28;20030;-75
2023/06/06 09:28:10;;;;;;;12.73;4.50;;;;;;;-143.48;44.39;118439.88;5017528;28;20465;-75
2023/06/06 09:30:36;;;;;;;10.65;4.40;;;;;;;-143.48;44.54;118439.88;5035332;28;20108;-75
2023/06/06 09:33:04;;;;;;;16.55;4.30;;;;;;;-143.48;45.28;118439.88;5035365;28;20389;-75
2023/06/06 09:35:55;;;;;;;13.88;4.50;;;;;;;-143.48;46.59;118439.88;5035236;28;20532;-75
2023/06/06 09:38:23;;;;;;;11.05;4.57;;;;;;;-143.48;45.23;118439.88;5014325;28;20040;-76
2023/06/06 09:40:51;;;;;;;8.48;3.72;;;;;;;-143.48;44.81;118439.88;5035240;28;20431;-76
2023/06/06 09:43:23;;;;;;;9.70;4.05;;;;;;;-143.48;43.93;118439.88;5017342;28;20120;-76
2023/06/06 09:45:58;;;;;;;12.65;4.43;;;;;;;-143.48;45.18;118439.88;5035075;28;20025;-75
2023/06/06 09:48:28;;;;;;;14.40;4.30;;;;;;;-143.48;45.56;118439.88;5034923;28;20083;-75
2023/06/06 09:50:54;;;;;;;9.23;3.95;;;;;;;-143.48;43.46;118439.88;5034818;28;20029;-75
2023/06/06 09:53:24;;;;;;;8.43;3.80;;;;;;;-143.48;43.94;118439.88;5034827;28;20048;-76
2023/06/06 09:55:51;;;;;;;10.88;3.78;;;;;;;-143.48;43.01;118439.88;5034802;28;20087;-76
2023/06/06 09:58:20;;;;;;;12.95;4.60;;;;;;;-143.48;44.12;118439.88;5034894;28;20026;-76
2023/06/06 10:00:47;;;;;;;14.85;4.32;;;;;;;-143.48;44.15;118439.88;5016810;28;20064;-76
2023/06/06 10:03:18;;;;;;;10.88;4.20;;;;;;;-143.48;44.09;118439.88;5034820;28;20491;-76
2023/06/06 10:05:45;;;;;;;11.18;4.28;;;;;;;-143.48;44.74;118439.88;5034604;28;20033;-76
2023/06/06 10:08:12;;;;;;;7.82;3.80;;;;;;;-143.48;43.71;118439.88;5016897;28;20361;-76
2023/06/06 10:10:40;;;;;;;8.88;3.92;;;;;;;-143.48;42.98;118439.88;5034681;28;20025;-76
2023/06/06 10:13:06;;;;;;;13.20;4.63;;;;;;;-143.48;43.43;118439.88;5016807;28;20068;-76
2023/06/06 10:15:31;;;;;;;8.77;4.30;;;;;;;-143.48;42.04;118439.88;5016900;28;20022;-76
2023/06/06 10:17:57;;;;;;;10.65;4.82;;;;;;;-143.48;43.67;118439.88;5033548;28;20048;-76
2023/06/06 10:20:23;;;;;;;11.45;4.60;;;;;;;-143.48;44.01;118439.88;5034349;28;20426;-75
2023/06/06 10:22:48;;;;;;;10.65;4.72;;;;;;;-143.48;44.65;118439.88;5016506;28;20033;-75
2023/06/06 10:25:16;;;;;;;9.85;4.93;;;;;;;-143.48;42.66;118439.88;5016467;28;20108;-75
2023/06/06 10:27:54;;;;;;;9.02;4.70;;;;;;;-143.48;42.21;118439.88;5016491;28;20481;-75
2023/06/06 10:30:32;;;;;;;10.45;4.57;;;;;;;-143.48;44.45;118439.88;5016347;28;20029;-76
2023/06/06 10:33:28;;;;;;;10.27;4.78;;;;;;;-143.48;42.95;118439.88;5033350;28;20025;-76
2023/06/06 10:35:57;;;;;;;11.10;4.72;;;;;;;-143.48;43.26;118439.88;5016124;28;20025;-76
2023/06/06 10:38:22;;;;;;;12.07;4.53;;;;;;;-143.48;43.15;118439.88;5031914;28;20021;-76
2023/06/06 10:40:53;;;;;;;12.63;5.22;;;;;;;-143.48;43.44;118439.88;5031939;28;20024;-76
2023/06/06 10:43:34;;;;;;;11.05;4.50;;;;;;;-143.48;42.65;118439.88;5014039;28;20083;-76
2023/06/06 10:46:01;;;;;;;9.90;4.57;;;;;;;-143.48;44.19;118439.88;5014255;28;20416;-76
2023/06/06 10:48:36;;;;;;;10.13;5.28;;;;;;;-143.48;41.97;118439.88;5013892;28;20030;-76
2023/06/06 10:51:02;;;;;;;10.98;4.60;;;;;;;-143.48;42.75;118439.88;5014056;28;20051;-76
2023/06/06 10:53:27;;;;;;;8.65;4.63;;;;;;;-143.48;42.32;118439.88;5033503;28;20112;-76
2023/06/06 10:55:52;;;;;;;11.05;4.35;;;;;;;-143.48;42.83;118439.88;5033685;28;20033;-76
2023/06/06 10:58:20;;;;;;;12.32;4.88;;;;;;;-143.48;43.15;118439.88;5034051;28;20026;-76
2023/06/06 11:00:50;;;;;;;10.70;5.03;;;;;;;-143.48;42.42;118439.88;5012330;28;20048;-74
2023/06/06 11:03:31;;;;;;;15.43;5.10;;;;;;;-143.48;43.52;118439.88;5013762;28;20049;-76